createdAt,value
2023-05-19T00:00:20.178Z,100662.80
2023-05-19T00:02:47.709Z,100660.58
2023-05-19T00:05:18.777Z,100661.40
2023-05-19T00:07:45.854Z,100663.79
2023-05-19T00:10:13.452Z,100664.04
2023-05-19T00:12:40.758Z,100666.97
2023-05-19T00:15:08.879Z,100665.83
2023-05-19T00:17:38.583Z,100669.73
2023-05-19T00:20:07.588Z,100667.13
2023-05-19T00:22:34.681Z,100667.73
2023-05-19T00:25:01.763Z,100668.39
2023-05-19T00:27:28.809Z,100670.16
2023-05-19T00:29:56.236Z,100670.51
2023-05-19T00:32:23.338Z,100674.37
2023-05-19T00:34:50.647Z,100674.06
2023-05-19T00:37:17.763Z,100677.84
2023-05-19T00:39:44.793Z,100669.98
2023-05-19T00:42:11.870Z,100670.86
2023-05-19T00:44:40.915Z,100669.98
2023-05-19T00:47:11.040Z,100674.70
2023-05-19T00:49:38.096Z,100664.23
2023-05-19T00:52:06.348Z,100660.58
2023-05-19T00:54:34.492Z,100662.91
2023-05-19T00:57:01.783Z,100672.59
2023-05-19T00:59:28.841Z,100684.27
2023-05-19T01:01:56.081Z,100685.94
2023-05-19T01:04:25.789Z,100687.79
2023-05-19T01:06:56.061Z,100683.75
2023-05-19T01:09:23.188Z,100684.96
2023-05-19T01:11:50.821Z,100676.25
2023-05-19T01:14:18.342Z,100675.79
2023-05-19T01:16:58.639Z,100676.41
2023-05-19T01:20:02.438Z,100675.10
2023-05-19T01:23:11.234Z,100673.83
2023-05-19T01:26:20.994Z,100676.51
2023-05-19T01:29:28.521Z,100679.04
2023-05-19T01:31:56.332Z,100676.60
2023-05-19T01:34:23.806Z,100671.45
2023-05-19T01:36:50.965Z,100673.34
2023-05-19T01:39:18.523Z,100675.63
2023-05-19T01:41:45.759Z,100680.13
2023-05-19T01:44:12.819Z,100675.30
2023-05-19T01:46:39.907Z,100676.65
2023-05-19T01:49:06.974Z,100675.98
2023-05-19T01:51:34.488Z,100675.52
2023-05-19T01:54:01.602Z,100678.09
2023-05-19T01:56:55.214Z,100677.69
2023-05-19T01:59:48.781Z,100680.33
2023-05-19T02:02:36.655Z,100679.39
2023-05-19T02:05:10.283Z,100684.55
2023-05-19T02:07:43.052Z,100684.44
2023-05-19T02:10:19.526Z,100690.11
2023-05-19T02:12:46.622Z,100688.41
2023-05-19T02:15:18.021Z,100691.98
2023-05-19T02:17:50.993Z,100696.23
2023-05-19T02:20:18.421Z,100695.68
2023-05-19T02:22:45.589Z,100698.34
2023-05-19T02:25:13.597Z,100701.38
2023-05-19T02:27:41.614Z,100703.05
2023-05-19T02:30:09.420Z,100705.80
2023-05-19T02:32:37.290Z,100711.25
2023-05-19T02:35:05.040Z,100709.59
2023-05-19T02:37:32.789Z,100712.45
2023-05-19T02:39:59.887Z,100714.48
2023-05-19T02:42:26.968Z,100715.28
2023-05-19T02:44:54.829Z,100717.09
2023-05-19T02:47:22.136Z,100719.31
2023-05-19T02:49:49.216Z,100717.12
2023-05-19T02:52:16.368Z,100716.03
2023-05-19T02:54:43.485Z,100717.91
2023-05-19T02:57:11.397Z,100716.31
2023-05-19T02:59:38.584Z,100719.70
2023-05-19T03:02:05.759Z,100721.50
2023-05-19T03:04:32.995Z,100721.43
2023-05-19T03:07:00.058Z,100724.45
2023-05-19T03:09:27.244Z,100723.56
2023-05-19T03:11:54.366Z,100726.92
2023-05-19T03:14:24.278Z,100726.46
2023-05-19T03:16:51.805Z,100732.76
2023-05-19T03:19:19.164Z,100734.61
2023-05-19T03:21:46.603Z,100731.54
2023-05-19T03:24:13.977Z,100732.69
2023-05-19T03:26:42.336Z,100732.04
2023-05-19T03:29:09.741Z,100734.15
2023-05-19T03:31:37.499Z,100738.10
2023-05-19T03:34:05.276Z,100736.14
2023-05-19T03:36:32.404Z,100735.79
2023-05-19T03:39:00.134Z,100737.82
2023-05-19T03:41:27.704Z,100736.35
2023-05-19T03:43:54.720Z,100735.64
2023-05-19T03:46:21.928Z,100730.05
2023-05-19T03:48:59.843Z,100732.42
2023-05-19T03:51:35.264Z,100734.42
2023-05-19T03:54:08.606Z,100731.95
2023-05-19T03:56:39.333Z,100732.41
2023-05-19T03:59:07.992Z,100731.98
2023-05-19T04:01:36.960Z,100734.35
2023-05-19T04:04:04.234Z,100731.50
2023-05-19T04:06:31.400Z,100728.92
2023-05-19T04:08:59.680Z,100735.08
2023-05-19T04:11:26.799Z,100732.14
2023-05-19T04:13:53.900Z,100736.61
2023-05-19T04:16:21.519Z,100736.34
2023-05-19T04:18:48.876Z,100734.33
2023-05-19T04:21:16.065Z,100734.36
2023-05-19T04:23:43.635Z,100730.77
2023-05-19T04:26:10.769Z,100732.96
2023-05-19T04:28:40.243Z,100736.08
2023-05-19T04:31:11.090Z,100731.45
2023-05-19T04:33:39.221Z,100733.45
2023-05-19T04:36:09.067Z,100732.80
2023-05-19T04:38:40.171Z,100732.65
2023-05-19T04:41:11.120Z,100734.80
2023-05-19T04:43:44.839Z,100734.77
2023-05-19T04:46:13.900Z,100731.35
2023-05-19T04:48:42.017Z,100726.60
2023-05-19T04:51:09.153Z,100728.20
2023-05-19T04:53:36.846Z,100724.29
2023-05-19T04:56:05.369Z,100726.27
2023-05-19T04:58:32.529Z,100729.73
2023-05-19T05:01:00.740Z,100728.29
2023-05-19T05:03:28.312Z,100727.59
2023-05-19T05:05:56.980Z,100732.10
2023-05-19T05:08:24.033Z,100732.05
2023-05-19T05:10:52.709Z,100729.38
2023-05-19T05:13:24.038Z,100728.77
2023-05-19T05:15:53.214Z,100731.73
2023-05-19T05:18:20.994Z,100724.64
2023-05-19T05:20:48.682Z,100728.05
2023-05-19T05:23:16.969Z,100733.71
2023-05-19T05:25:46.953Z,100734.68
2023-05-19T05:28:14.844Z,100734.19
2023-05-19T05:30:42.358Z,100734.32
2023-05-19T05:33:09.658Z,100733.23
2023-05-19T05:35:38.832Z,100733.38
2023-05-19T05:38:06.860Z,100737.21
2023-05-19T05:40:34.199Z,100735.44
2023-05-19T05:43:01.652Z,100730.22
2023-05-19T05:45:31.294Z,100736.92
2023-05-19T05:48:00.174Z,100738.02
2023-05-19T05:50:27.655Z,100736.52
2023-05-19T05:52:55.061Z,100738.44
2023-05-19T05:55:23.051Z,100735.53
2023-05-19T05:57:50.863Z,100738.57
2023-05-19T06:00:18.881Z,100739.30
2023-05-19T06:02:51.607Z,100743.59
2023-05-19T06:05:19.488Z,100742.58
2023-05-19T06:07:47.265Z,100739.34
2023-05-19T06:10:18.638Z,100739.10
2023-05-19T06:12:46.494Z,100740.45
2023-05-19T06:15:13.632Z,100739.52
2023-05-19T06:17:53.153Z,100741.73
2023-05-19T06:20:20.742Z,100741.55
2023-05-19T06:22:47.854Z,100743.73
2023-05-19T06:25:15.281Z,100740.54
2023-05-19T06:27:42.654Z,100739.04
2023-05-19T06:30:10.064Z,100740.02
2023-05-19T06:32:46.427Z,100745.16
2023-05-19T06:35:13.736Z,100747.15
2023-05-19T06:37:40.894Z,100743.51
2023-05-19T06:40:09.018Z,100743.96
2023-05-19T06:42:36.477Z,100749.20
2023-05-19T06:45:26.239Z,100743.91
2023-05-19T06:47:54.805Z,100746.04
2023-05-19T06:50:22.099Z,100748.56
2023-05-19T06:52:49.568Z,100747.50
2023-05-19T06:55:16.764Z,100746.71
2023-05-19T06:57:43.913Z,100751.26
2023-05-19T07:00:14.496Z,100749.27
2023-05-19T07:02:44.490Z,100747.78
2023-05-19T07:05:11.636Z,100754.63
2023-05-19T07:07:38.885Z,100754.37
2023-05-19T07:10:08.404Z,100753.66
2023-05-19T07:12:35.703Z,100749.96
2023-05-19T07:15:03.256Z,100757.29
2023-05-19T07:17:31.202Z,100756.65
2023-05-19T07:19:59.168Z,100758.38
2023-05-19T07:22:26.277Z,100760.73
2023-05-19T07:24:53.456Z,100760.11
2023-05-19T07:27:20.676Z,100760.20
2023-05-19T07:29:47.697Z,100758.80
2023-05-19T07:32:14.768Z,100757.38
2023-05-19T07:34:41.852Z,100759.06
2023-05-19T07:37:08.914Z,100761.42
2023-05-19T07:39:36.066Z,100761.37
2023-05-19T07:42:03.462Z,100760.95
2023-05-19T07:44:31.637Z,100755.58
2023-05-19T07:46:58.687Z,100755.06
2023-05-19T07:49:25.806Z,100754.93
2023-05-19T07:51:54.351Z,100753.77
2023-05-19T07:54:21.671Z,100751.13
2023-05-19T07:56:48.764Z,100744.36
2023-05-19T07:59:16.090Z,100751.27
2023-05-19T08:01:43.211Z,100744.64
2023-05-19T08:04:12.916Z,100747.09
2023-05-19T08:06:42.937Z,100748.63
2023-05-19T08:09:10.674Z,100744.92
2023-05-19T08:11:37.774Z,100739.65
2023-05-19T08:14:05.053Z,100737.02
2023-05-19T08:16:32.185Z,100741.57
2023-05-19T08:19:02.822Z,100736.34
2023-05-19T08:21:30.061Z,100736.80
2023-05-19T08:23:57.440Z,100744.95
2023-05-19T08:26:24.627Z,100737.17
2023-05-19T08:28:51.725Z,100733.08
2023-05-19T08:31:19.210Z,100726.89
2023-05-19T08:33:46.484Z,100738.00
2023-05-19T08:36:13.536Z,100730.20
2023-05-19T08:38:40.563Z,100731.66
2023-05-19T08:41:07.620Z,100731.61
2023-05-19T08:43:34.759Z,100730.12
2023-05-19T08:46:01.993Z,100726.63
2023-05-19T08:48:30.877Z,100724.60
2023-05-19T08:54:08.956Z,100728.58
2023-05-19T08:56:36.490Z,100722.44
2023-05-19T08:59:04.436Z,100728.55
2023-05-19T09:01:31.798Z,100724.70
2023-05-19T09:03:59.119Z,100724.59
2023-05-19T09:06:26.844Z,100719.52
2023-05-19T09:08:53.993Z,100719.27
2023-05-19T09:11:22.938Z,100715.48
2023-05-19T09:13:50.235Z,100712.66
2023-05-19T09:16:18.132Z,100708.52
2023-05-19T09:18:58.027Z,100714.81
2023-05-19T09:21:31.569Z,100713.19
2023-05-19T09:24:06.592Z,100713.49
2023-05-19T09:26:43.268Z,100708.44
2023-05-19T09:29:14.480Z,100711.65
2023-05-19T09:31:51.279Z,100708.84
2023-05-19T09:34:19.019Z,100704.91
2023-05-19T09:36:49.652Z,100708.23
2023-05-19T09:39:17.340Z,100702.48
2023-05-19T09:41:44.644Z,100696.38
2023-05-19T09:44:30.526Z,100686.14
2023-05-19T09:46:58.741Z,100694.29
2023-05-19T09:49:29.688Z,100698.59
2023-05-19T09:51:57.762Z,100698.81
2023-05-19T09:54:25.445Z,100691.83
2023-05-19T09:57:00.485Z,100688.45
2023-05-19T09:59:30.472Z,100692.41
2023-05-19T10:02:00.015Z,100693.13
2023-05-19T10:04:28.338Z,100692.20
2023-05-19T10:06:59.857Z,100691.85
2023-05-19T10:09:28.537Z,100693.31
2023-05-19T10:11:59.080Z,100694.47
2023-05-19T10:14:27.559Z,100687.55
2023-05-19T10:16:56.129Z,100680.30
2023-05-19T10:19:25.955Z,100679.10
2023-05-19T10:21:53.477Z,100675.62
2023-05-19T10:24:21.686Z,100677.42
2023-05-19T10:27:04.118Z,100674.00
2023-05-19T10:29:33.972Z,100681.32
2023-05-19T10:32:03.326Z,100680.14
2023-05-19T10:35:08.547Z,100681.95
2023-05-19T10:38:03.890Z,100685.17
2023-05-19T10:40:33.983Z,100685.85
2023-05-19T10:43:25.769Z,100687.57
2023-05-19T10:45:53.803Z,100687.77
2023-05-19T10:48:21.947Z,100683.80
2023-05-19T10:50:49.282Z,100681.65
2023-05-19T10:53:18.460Z,100685.30
2023-05-19T10:55:53.906Z,100684.92
2023-05-19T10:58:36.732Z,100677.08
2023-05-19T11:01:07.148Z,100676.26
2023-05-19T11:03:44.764Z,100672.70
2023-05-19T11:06:18.343Z,100668.67
2023-05-19T11:08:45.403Z,100668.17
2023-05-19T11:11:17.030Z,100669.07
2023-05-19T11:13:48.345Z,100664.48
2023-05-19T11:16:15.456Z,100662.41
2023-05-19T11:18:42.671Z,100657.38
2023-05-19T11:21:09.763Z,100653.42
2023-05-19T11:23:43.678Z,100654.33
2023-05-19T11:26:11.102Z,100647.01
2023-05-19T11:28:38.123Z,100648.43
2023-05-19T11:31:08.308Z,100650.58
2023-05-19T11:33:35.411Z,100645.89
2023-05-19T11:36:02.545Z,100654.08
2023-05-19T11:38:30.452Z,100660.52
2023-05-19T11:40:57.807Z,100664.19
2023-05-19T11:43:25.456Z,100671.54
2023-05-19T11:45:54.104Z,100674.29
2023-05-19T11:48:22.238Z,100668.36
2023-05-19T11:50:49.346Z,100671.42
2023-05-19T11:53:22.243Z,100671.71
2023-05-19T11:55:49.872Z,100678.92
2023-05-19T11:58:17.561Z,100672.32
2023-05-19T12:00:46.462Z,100667.63
2023-05-19T12:03:13.776Z,100666.84
2023-05-19T12:05:46.701Z,100661.95
2023-05-19T12:08:14.622Z,100662.14
2023-05-19T12:10:41.945Z,100661.69
2023-05-19T12:13:11.929Z,100664.99
2023-05-19T12:15:39.285Z,100658.41
2023-05-19T12:18:06.866Z,100655.44
2023-05-19T12:20:36.331Z,100649.02
2023-05-19T12:23:04.115Z,100650.98
2023-05-19T12:25:32.212Z,100648.88
2023-05-19T12:28:00.837Z,100647.59
2023-05-19T12:30:29.108Z,100654.46
2023-05-19T12:32:57.965Z,100654.48
2023-05-19T12:35:29.669Z,100653.35
2023-05-19T12:37:56.833Z,100643.80
2023-05-19T12:40:23.947Z,100644.14
2023-05-19T12:42:53.502Z,100642.15
2023-05-19T12:45:21.680Z,100642.00
2023-05-19T12:47:49.014Z,100643.80
2023-05-19T12:50:16.428Z,100646.73
2023-05-19T12:52:53.346Z,100645.40
2023-05-19T12:55:21.344Z,100639.77
2023-05-19T12:57:57.538Z,100642.23
2023-05-19T13:00:28.117Z,100645.55
2023-05-19T13:03:00.453Z,100644.42
2023-05-19T13:05:28.605Z,100652.57
2023-05-19T13:08:00.474Z,100652.00
2023-05-19T13:10:28.361Z,100654.75
2023-05-19T13:12:55.873Z,100654.08
2023-05-19T13:15:24.503Z,100652.81
2023-05-19T13:17:51.857Z,100658.03
2023-05-19T13:20:19.621Z,100651.33
2023-05-19T13:22:47.833Z,100654.84
2023-05-19T13:25:15.035Z,100652.95
2023-05-19T13:27:42.102Z,100651.36
2023-05-19T13:30:09.473Z,100652.81
2023-05-19T13:32:36.614Z,100653.95
2023-05-19T13:35:03.910Z,100651.50
2023-05-19T13:37:31.023Z,100654.09
2023-05-19T13:40:01.411Z,100656.13
2023-05-19T13:42:28.516Z,100650.70
2023-05-19T13:44:56.624Z,100650.92
2023-05-19T13:47:24.197Z,100651.94
2023-05-19T13:49:51.870Z,100653.30
2023-05-19T13:52:20.958Z,100656.54
2023-05-19T13:54:48.751Z,100661.22
2023-05-19T13:57:16.601Z,100665.73
2023-05-19T14:00:00.129Z,100671.21
2023-05-19T14:02:40.017Z,100671.70
2023-05-19T14:05:08.161Z,100673.54
2023-05-19T14:07:35.733Z,100675.68
2023-05-19T14:10:04.168Z,100676.77
2023-05-19T14:12:41.511Z,100681.89
2023-05-19T14:15:14.806Z,100686.77
2023-05-19T14:17:42.148Z,100684.26
2023-05-19T14:20:10.163Z,100693.90
2023-05-19T14:22:37.225Z,100690.23
2023-05-19T14:25:04.483Z,100692.25
2023-05-19T14:27:31.506Z,100694.44
2023-05-19T14:29:58.649Z,100694.73
2023-05-19T14:32:27.901Z,100698.33
2023-05-19T14:34:56.545Z,100693.90
2023-05-19T14:37:24.382Z,100697.02
2023-05-19T14:39:51.414Z,100696.96
2023-05-19T14:42:18.534Z,100692.63
2023-05-19T14:44:45.645Z,100693.99
2023-05-19T14:47:12.846Z,100694.21
2023-05-19T14:49:40.047Z,100695.34
2023-05-19T14:52:07.345Z,100699.23
2023-05-19T14:54:34.471Z,100701.17
2023-05-19T14:57:01.886Z,100698.09
2023-05-19T14:59:29.995Z,100700.35
2023-05-19T15:01:57.036Z,100697.77
2023-05-19T15:04:24.160Z,100701.82
2023-05-19T15:07:05.970Z,100700.98
2023-05-19T15:09:36.708Z,100700.78
2023-05-19T15:12:03.933Z,100702.67
2023-05-19T15:14:31.486Z,100703.23
2023-05-19T15:16:59.173Z,100704.54
2023-05-19T15:19:27.095Z,100702.16
2023-05-19T15:21:54.457Z,100705.72
2023-05-19T15:24:21.622Z,100705.17
2023-05-19T15:26:48.844Z,100707.23
2023-05-19T15:29:16.110Z,100705.79
2023-05-19T15:31:43.341Z,100710.59
2023-05-19T15:34:10.535Z,100712.23
2023-05-19T15:36:37.577Z,100714.52
2023-05-19T15:39:05.324Z,100716.02
2023-05-19T15:41:32.399Z,100715.67
2023-05-19T15:44:03.073Z,100716.92
2023-05-19T15:46:30.759Z,100718.16
2023-05-19T15:48:57.904Z,100720.36
2023-05-19T15:51:25.484Z,100721.00
2023-05-19T15:53:52.797Z,100725.27
2023-05-19T15:56:19.974Z,100727.42
2023-05-19T15:58:47.173Z,100729.50
2023-05-19T16:01:15.159Z,100729.06
2023-05-19T16:03:42.527Z,100730.23
2023-05-19T16:06:09.890Z,100729.31
2023-05-19T16:08:38.244Z,100730.73
2023-05-19T16:11:05.523Z,100734.41
2023-05-19T16:13:33.836Z,100731.20
2023-05-19T16:16:01.315Z,100732.73
2023-05-19T16:18:31.372Z,100735.65
2023-05-19T16:20:58.490Z,100735.02
2023-05-19T16:23:25.590Z,100735.43
2023-05-19T16:25:54.898Z,100736.61
2023-05-19T16:28:23.902Z,100739.36
2023-05-19T16:30:51.981Z,100740.95
2023-05-19T16:33:19.089Z,100743.02
2023-05-19T16:35:46.222Z,100745.10
2023-05-19T16:38:13.250Z,100748.11
2023-05-19T16:40:40.356Z,100747.94
2023-05-19T16:43:07.480Z,100750.62
2023-05-19T16:45:34.660Z,100753.41
2023-05-19T16:48:02.028Z,100754.99
2023-05-19T16:50:29.744Z,100754.20
2023-05-19T16:52:56.888Z,100755.09
2023-05-19T16:55:25.879Z,100755.23
2023-05-19T16:57:53.012Z,100758.15
2023-05-19T17:00:20.329Z,100761.84
2023-05-19T17:02:48.154Z,100763.51
2023-05-19T17:05:15.474Z,100763.23
2023-05-19T17:07:42.508Z,100766.34
2023-05-19T17:10:09.865Z,100766.33
2023-05-19T17:12:37.110Z,100773.64
2023-05-19T17:15:04.655Z,100774.13
2023-05-19T17:17:31.805Z,100773.96
2023-05-19T17:19:58.938Z,100774.73
2023-05-19T17:22:26.660Z,100775.23
2023-05-19T17:24:55.048Z,100777.02
2023-05-19T17:27:22.142Z,100778.59
2023-05-19T17:29:49.334Z,100779.65
2023-05-19T17:32:16.451Z,100783.83
2023-05-19T17:34:43.554Z,100786.48
2023-05-19T17:37:10.976Z,100788.58
2023-05-19T17:39:38.062Z,100784.58
2023-05-19T17:42:05.376Z,100786.83
2023-05-19T17:44:32.584Z,100788.16
2023-05-19T17:47:00.609Z,100788.19
2023-05-19T17:49:27.708Z,100787.41
2023-05-19T17:51:55.238Z,100788.02
2023-05-19T17:54:22.613Z,100789.10
2023-05-19T17:56:49.733Z,100790.27
2023-05-19T17:59:17.045Z,100794.20
2023-05-19T18:01:44.567Z,100797.36
2023-05-19T18:04:13.920Z,100796.52
2023-05-19T18:06:44.707Z,100795.72
2023-05-19T18:09:13.392Z,100795.61
2023-05-19T18:11:41.029Z,100797.73
2023-05-19T18:14:08.184Z,100799.30
2023-05-19T18:16:35.277Z,100800.26
2023-05-19T18:19:03.105Z,100801.20
2023-05-19T18:21:31.625Z,100802.65
2023-05-19T18:24:00.697Z,100802.45
2023-05-19T18:26:27.706Z,100799.59
2023-05-19T18:28:54.787Z,100802.62
2023-05-19T18:31:23.400Z,100801.33
2023-05-19T18:33:50.614Z,100803.66
2023-05-19T18:36:19.369Z,100808.34
2023-05-19T18:38:47.803Z,100811.63
2023-05-19T18:41:14.972Z,100805.10
2023-05-19T18:43:42.026Z,100809.42
2023-05-19T18:53:51.468Z,100816.06
2023-05-19T18:56:26.521Z,100820.06
2023-05-19T18:58:54.660Z,100821.66
2023-05-19T19:01:21.864Z,100822.48
2023-05-19T19:03:50.163Z,100823.98
2023-05-19T19:06:17.505Z,100823.52
2023-05-19T19:08:44.753Z,100824.06
2023-05-19T19:11:11.962Z,100825.02
2023-05-19T19:13:40.047Z,100823.15
2023-05-19T19:16:08.476Z,100824.73
2023-05-19T19:18:36.705Z,100827.06
2023-05-19T19:21:06.145Z,100824.37
2023-05-19T19:23:33.867Z,100828.41
2023-05-19T19:26:01.596Z,100828.49
2023-05-19T19:28:28.776Z,100823.06
2023-05-19T19:30:56.990Z,100824.28
2023-05-19T19:33:25.004Z,100819.20
2023-05-19T19:35:52.375Z,100820.17
2023-05-19T19:38:19.814Z,100823.79
2023-05-19T19:40:46.924Z,100830.55
2023-05-19T19:43:17.863Z,100832.34
2023-05-19T19:45:45.422Z,100835.70
2023-05-19T19:48:13.321Z,100833.34
2023-05-19T19:50:41.849Z,100835.36
2023-05-19T19:53:09.149Z,100833.33
2023-05-19T19:55:36.998Z,100832.32
2023-05-19T19:58:04.643Z,100833.09
2023-05-19T20:00:33.035Z,100831.21
2023-05-19T20:05:30.336Z,100831.39
2023-05-19T20:07:57.512Z,100830.85
2023-05-19T20:10:24.601Z,100831.81
2023-05-19T20:12:52.033Z,100831.60
2023-05-19T20:15:19.239Z,100828.71
2023-05-19T20:17:46.411Z,100830.75
2023-05-19T20:20:13.740Z,100831.84
2023-05-19T20:22:40.863Z,100835.73
2023-05-19T20:25:08.298Z,100840.14
2023-05-19T20:27:35.376Z,100835.52
2023-05-19T20:30:02.414Z,100844.07
2023-05-19T20:32:29.440Z,100852.61
2023-05-19T20:34:56.780Z,100855.60
2023-05-19T20:37:24.018Z,100851.56
2023-05-19T20:39:51.125Z,100848.45
2023-05-19T20:42:18.188Z,100848.49
2023-05-19T20:44:45.213Z,100846.18
2023-05-19T20:47:12.366Z,100843.12
2023-05-19T20:49:39.448Z,100845.13
2023-05-19T20:52:06.784Z,100850.73
2023-05-19T20:54:33.924Z,100852.48
2023-05-19T20:57:06.529Z,100849.67
2023-05-19T20:59:33.664Z,100853.56
2023-05-19T21:02:00.967Z,100855.11
2023-05-19T21:04:28.122Z,100859.68
2023-05-19T21:06:55.239Z,100856.17
2023-05-19T21:11:48.350Z,100858.37
2023-05-19T21:14:15.428Z,100856.80
2023-05-19T21:16:42.702Z,100857.29
2023-05-19T21:19:09.848Z,100855.63
2023-05-19T21:21:38.556Z,100849.71
2023-05-19T21:24:05.853Z,100852.25
2023-05-19T21:26:32.946Z,100849.81
2023-05-19T21:28:59.986Z,100850.44
2023-05-19T21:31:27.055Z,100853.75
2023-05-19T21:33:54.121Z,100851.63
2023-05-19T21:36:21.224Z,100856.41
2023-05-19T21:38:48.326Z,100855.50
2023-05-19T21:41:15.454Z,100857.31
2023-05-19T21:43:45.203Z,100857.77
2023-05-19T21:46:12.453Z,100858.46
2023-05-19T21:48:39.819Z,100858.64
2023-05-19T21:51:07.127Z,100862.40
2023-05-19T21:53:34.217Z,100861.45
2023-05-19T21:56:01.333Z,100861.08
2023-05-19T21:58:28.434Z,100861.61
2023-05-19T22:00:56.275Z,100863.23
2023-05-19T22:03:24.091Z,100869.55
2023-05-19T22:05:52.712Z,100868.40
2023-05-19T22:08:20.248Z,100866.98
2023-05-19T22:10:53.276Z,100865.66
2023-05-19T22:13:20.515Z,100866.73
2023-05-19T22:15:47.691Z,100868.20
2023-05-19T22:18:14.833Z,100870.23
2023-05-19T22:20:41.930Z,100871.17
2023-05-19T22:23:09.041Z,100869.55
2023-05-19T22:25:36.112Z,100871.52
2023-05-19T22:28:03.307Z,100871.88
2023-05-19T22:30:31.018Z,100872.43
2023-05-19T22:32:58.176Z,100874.34
2023-05-19T22:35:25.681Z,100875.19
2023-05-19T22:37:52.786Z,100880.05
2023-05-19T22:40:19.877Z,100880.94
2023-05-19T22:42:46.959Z,100880.55
2023-05-19T22:45:14.389Z,100876.57
2023-05-19T22:47:41.473Z,100874.12
2023-05-19T22:50:12.445Z,100877.90
2023-05-19T22:52:39.522Z,100876.11
2023-05-19T22:55:07.347Z,100878.26
2023-05-19T22:57:34.401Z,100879.29
2023-05-19T23:00:01.463Z,100879.10
2023-05-19T23:02:28.520Z,100881.29
2023-05-19T23:04:55.883Z,100881.77
2023-05-19T23:07:22.988Z,100880.98
2023-05-19T23:09:50.173Z,100884.91
2023-05-19T23:12:17.319Z,100881.73
2023-05-19T23:14:44.413Z,100883.41
2023-05-19T23:17:11.760Z,100887.42
2023-05-19T23:19:39.073Z,100884.87
2023-05-19T23:22:06.068Z,100885.98
2023-05-19T23:24:33.152Z,100884.04
2023-05-19T23:27:01.270Z,100881.52
2023-05-19T23:29:28.466Z,100881.84
2023-05-19T23:31:55.518Z,100883.86
2023-05-19T23:34:22.610Z,100885.43
2023-05-19T23:36:49.643Z,100884.54
2023-05-19T23:39:16.720Z,100886.30
2023-05-19T23:41:43.809Z,100887.29
2023-05-19T23:44:10.896Z,100884.83
2023-05-19T23:46:37.996Z,100883.98
2023-05-19T23:49:05.189Z,100884.14
2023-05-19T23:51:32.290Z,100882.92
2023-05-19T23:53:59.412Z,100883.26
2023-05-19T23:56:26.550Z,100888.66
2023-05-19T23:58:53.570Z,100886.97
